Gaylord, MI (49734)

5:14 PM EST on February 11, 2016 (GMT -0500)
Woodcrest Drive | | Change Station
CLOSE
Current Station
Personal Weather Station
Location: Gaylord, MI
Elevation: 1319 ft
Nearby Weather Stations
Active Advisory: Winter Weather Advisory

Elev 1319 ft 45.00 °N, 84.65 °W | Updated 43 seconds ago

Overcast
Overcast
16.4 °F
Feels Like 10 °F
N
4.0
Wind Variable Wind from NNW
Gusts 5.0 mph

Today
High -- | Low -- °F
--% Chance of Precip.
Yesterday
High -- | Low -- °F
Precip. -- in
Pressure 30.13 in
Visibility 7.0 miles
Clouds Scattered Clouds 1200 ft
Scattered Clouds 1700 ft
Overcast 4100 ft
Windchill 10 °F
Dew Point -6 °F
Humidity 35%
Rainfall 0.00 in
Snow Depth Not available.
7:46 AM 6:00 PM
Waxing Crescent, 15% visible
METAR KGOV 112155Z AUTO 28012G20KT 7SM SCT012 SCT017 OVC041 M09/M14 A3013 RMK AO2 T10911138
Pressure 30.13 in
Visibility 7.0 miles
Clouds Scattered Clouds 1200 ft
Scattered Clouds 1700 ft
Overcast 4100 ft
Windchill 10 °F
Dew Point -6 °F
Humidity 35%
Rainfall 0.00 in
Snow Depth Not available.
7:46 AM 6:00 PM
Waxing Crescent, 15% visible
METAR KGOV 112155Z AUTO 28012G20KT 7SM SCT012 SCT017 OVC041 M09/M14 A3013 RMK AO2 T10911138

10-Day Weather Forecast

Almanac

Astronomy

Feb. 11, 2016 Rise Set
Actual Time
Civil Twilight
Nautical Twilight
Astronomical Twilight
Moon
Length of Visible Light
Length of Day
Tomorrow will be .
, % of the Moon is Illuminated

Today's Extremes

State Highs State Lows

Community

WunderPhotos

Upload Photos

1,892,171 photos uploaded!

WunderBlog® & News

Nearby

Air Quality

  Air Quality AQ Index Pollutant
Not available.

Snow Depth

Station Depth Elevation

Earthquake Activity

City Distance Mag. Time & Date
Minimum magnitude displayed is 2.5.

Coastal Water Temperatures

Place Temperature

Stations

Nearby Weather Stations

Station Location Temp. Windchill Dew Point Humidity Wind Precip. Elev Updated Type
                   

Watches & Warnings

Winter Weather Advisory
Issued: 3:46 PM EST Feb. 11, 2016 – National Weather Service

... Winter Weather Advisory in effect from 7 am to 4 PM EST
Friday...

The National Weather Service in Gaylord has issued a Winter
Weather Advisory... which is in effect from 7 am to 4 PM EST
Friday.

* Lake effect snow will occur in northwest lower Michigan Friday.

* Accumulations of 2 to 4 inches will occur... with the highest
amounts expected in the Traverse City and Kalkaska areas.

* Gusty northwest winds will result in blowing and drifting
snow... and contribute to sharply limited visibilities at times.

Precautionary/preparedness actions...

A Winter Weather Advisory for lake effect snow and blowing snow
means that visibilities will be limited due to a combination of
falling and blowing snow. Use caution when traveling... especially
in open areas.



Jz